sensor_id;sensor_type;location;lat;lon;timestamp;temperature;humidity
21121;DHT22;12519;43.318;21.898;2023-12-20T00:01:57;5.9;99.0
21121;DHT22;12519;43.318;21.898;2023-12-20T00:06:34;7.2;100.0
21121;DHT22;12519;43.318;21.898;2023-12-20T00:11:10;7.2;100.0
21121;DHT22;12519;43.318;21.898;2023-12-20T00:15:46;8.4;100.0
21121;DHT22;12519;43.318;21.898;2023-12-20T00:20:23;8.4;100.0
21121;DHT22;12519;43.318;21.898;2023-12-20T00:24:59;7.6;99.0
21121;DHT22;12519;43.318;21.898;2023-12-20T00:29:35;7.6;99.0
21121;DHT22;12519;43.318;21.898;2023-12-20T00:34:12;6.8;98.0
21121;DHT22;12519;43.318;21.898;2023-12-20T00:38:48;6.8;98.0
21121;DHT22;12519;43.318;21.898;2023-12-20T00:43:24;6.0;99.0
21121;DHT22;12519;43.318;21.898;2023-12-20T00:48:01;6.0;99.0
21121;DHT22;12519;43.318;21.898;2023-12-20T00:52:37;6.0;99.0
21121;DHT22;12519;43.318;21.898;2023-12-20T00:57:14;5.2;100.0
21121;DHT22;12519;43.318;21.898;2023-12-20T01:01:50;5.2;100.0
21121;DHT22;12519;43.318;21.898;2023-12-20T01:06:27;5.2;100.0
21121;DHT22;12519;43.318;21.898;2023-12-20T01:11:04;5.2;100.0
21121;DHT22;12519;43.318;21.898;2023-12-20T01:15:41;5.2;100.0
21121;DHT22;12519;43.318;21.898;2023-12-20T01:20:18;5.2;100.0
21121;DHT22;12519;43.318;21.898;2023-12-20T01:24:54;5.0;100.0
21121;DHT22;12519;43.318;21.898;2023-12-20T01:29:30;5.0;100.0
21121;DHT22;12519;43.318;21.898;2023-12-20T01:34:07;4.8;100.0
21121;DHT22;12519;43.318;21.898;2023-12-20T01:38:43;4.8;100.0
21121;DHT22;12519;43.318;21.898;2023-12-20T01:43:19;4.8;100.0
21121;DHT22;12519;43.318;21.898;2023-12-20T01:47:58;4.8;100.0
21121;DHT22;12519;43.318;21.898;2023-12-20T01:52:37;4.8;100.0
21121;DHT22;12519;43.318;21.898;2023-12-20T01:57:15;4.9;100.0
21121;DHT22;12519;43.318;21.898;2023-12-20T02:01:51;4.9;100.0
21121;DHT22;12519;43.318;21.898;2023-12-20T02:06:30;5.1;100.0
21121;DHT22;12519;43.318;21.898;2023-12-20T02:11:10;5.1;100.0
21121;DHT22;12519;43.318;21.898;2023-12-20T02:15:46;5.2;100.0
21121;DHT22;12519;43.318;21.898;2023-12-20T02:20:22;5.2;100.0
21121;DHT22;12519;43.318;21.898;2023-12-20T02:24:59;5.4;100.0
21121;DHT22;12519;43.318;21.898;2023-12-20T02:29:36;5.4;100.0
21121;DHT22;12519;43.318;21.898;2023-12-20T02:34:12;5.6;100.0
21121;DHT22;12519;43.318;21.898;2023-12-20T02:38:49;5.6;100.0
21121;DHT22;12519;43.318;21.898;2023-12-20T02:43:25;5.2;100.0
21121;DHT22;12519;43.318;21.898;2023-12-20T02:48:02;5.2;100.0
21121;DHT22;12519;43.318;21.898;2023-12-20T02:52:41;5.2;100.0
21121;DHT22;12519;43.318;21.898;2023-12-20T02:57:21;4.8;100.0
21121;DHT22;12519;43.318;21.898;2023-12-20T03:01:57;4.8;100.0
21121;DHT22;12519;43.318;21.898;2023-12-20T03:06:33;4.6;100.0
21121;DHT22;12519;43.318;21.898;2023-12-20T03:11:10;4.6;100.0
21121;DHT22;12519;43.318;21.898;2023-12-20T03:15:47;4.5;100.0
21121;DHT22;12519;43.318;21.898;2023-12-20T03:20:23;4.5;100.0
21121;DHT22;12519;43.318;21.898;2023-12-20T03:25:00;4.5;100.0
21121;DHT22;12519;43.318;21.898;2023-12-20T03:29:36;4.5;100.0
21121;DHT22;12519;43.318;21.898;2023-12-20T03:34:12;4.5;100.0
21121;DHT22;12519;43.318;21.898;2023-12-20T03:38:48;4.5;100.0
21121;DHT22;12519;43.318;21.898;2023-12-20T03:43:24;4.9;100.0
21121;DHT22;12519;43.318;21.898;2023-12-20T03:48:01;4.9;100.0
21121;DHT22;12519;43.318;21.898;2023-12-20T03:52:37;4.9;100.0
21121;DHT22;12519;43.318;21.898;2023-12-20T03:57:14;5.3;100.0
21121;DHT22;12519;43.318;21.898;2023-12-20T04:01:50;5.3;100.0
21121;DHT22;12519;43.318;21.898;2023-12-20T04:06:26;5.3;100.0
21121;DHT22;12519;43.318;21.898;2023-12-20T04:11:07;5.3;100.0
21121;DHT22;12519;43.318;21.898;2023-12-20T04:15:43;5.3;100.0
21121;DHT22;12519;43.318;21.898;2023-12-20T04:20:19;5.3;100.0
21121;DHT22;12519;43.318;21.898;2023-12-20T04:24:56;4.9;100.0
21121;DHT22;12519;43.318;21.898;2023-12-20T04:29:32;4.9;100.0
21121;DHT22;12519;43.318;21.898;2023-12-20T04:34:09;4.5;100.0
21121;DHT22;12519;43.318;21.898;2023-12-20T04:38:45;4.5;100.0
21121;DHT22;12519;43.318;21.898;2023-12-20T04:43:21;4.8;100.0
21121;DHT22;12519;43.318;21.898;2023-12-20T04:47:58;4.8;100.0
21121;DHT22;12519;43.318;21.898;2023-12-20T04:52:34;4.8;100.0
21121;DHT22;12519;43.318;21.898;2023-12-20T04:57:11;5.0;100.0
21121;DHT22;12519;43.318;21.898;2023-12-20T05:01:47;5.0;100.0
21121;DHT22;12519;43.318;21.898;2023-12-20T05:06:23;4.9;100.0
21121;DHT22;12519;43.318;21.898;2023-12-20T05:11:00;4.9;100.0
21121;DHT22;12519;43.318;21.898;2023-12-20T05:15:37;4.8;100.0
21121;DHT22;12519;43.318;21.898;2023-12-20T05:20:13;4.8;100.0
21121;DHT22;12519;43.318;21.898;2023-12-20T05:24:50;4.8;100.0
21121;DHT22;12519;43.318;21.898;2023-12-20T05:29:26;4.8;100.0
21121;DHT22;12519;43.318;21.898;2023-12-20T05:34:03;4.8;100.0
21121;DHT22;12519;43.318;21.898;2023-12-20T05:38:39;4.8;100.0
21121;DHT22;12519;43.318;21.898;2023-12-20T05:43:16;4.8;100.0
21121;DHT22;12519;43.318;21.898;2023-12-20T05:47:52;4.8;100.0
21121;DHT22;12519;43.318;21.898;2023-12-20T05:52:28;4.8;100.0
21121;DHT22;12519;43.318;21.898;2023-12-20T05:57:04;4.8;100.0
21121;DHT22;12519;43.318;21.898;2023-12-20T06:01:40;4.8;100.0
21121;DHT22;12519;43.318;21.898;2023-12-20T06:06:17;4.9;100.0
21121;DHT22;12519;43.318;21.898;2023-12-20T06:10:53;4.9;100.0
21121;DHT22;12519;43.318;21.898;2023-12-20T06:15:30;5.1;100.0
21121;DHT22;12519;43.318;21.898;2023-12-20T06:20:09;5.1;100.0
21121;DHT22;12519;43.318;21.898;2023-12-20T06:24:46;5.0;100.0
21121;DHT22;12519;43.318;21.898;2023-12-20T06:29:22;5.0;100.0
21121;DHT22;12519;43.318;21.898;2023-12-20T06:33:59;5.0;100.0
21121;DHT22;12519;43.318;21.898;2023-12-20T06:38:36;5.0;100.0
21121;DHT22;12519;43.318;21.898;2023-12-20T06:43:13;5.0;100.0
21121;DHT22;12519;43.318;21.898;2023-12-20T06:47:49;5.1;100.0
21121;DHT22;12519;43.318;21.898;2023-12-20T06:52:26;5.1;100.0
21121;DHT22;12519;43.318;21.898;2023-12-20T06:57:03;5.2;100.0
21121;DHT22;12519;43.318;21.898;2023-12-20T07:01:40;5.2;100.0
21121;DHT22;12519;43.318;21.898;2023-12-20T07:06:16;5.6;100.0
21121;DHT22;12519;43.318;21.898;2023-12-20T07:10:52;5.6;100.0
21121;DHT22;12519;43.318;21.898;2023-12-20T07:15:29;6.0;100.0
21121;DHT22;12519;43.318;21.898;2023-12-20T07:20:07;6.0;100.0
21121;DHT22;12519;43.318;21.898;2023-12-20T07:24:46;5.8;100.0
21121;DHT22;12519;43.318;21.898;2023-12-20T07:29:22;5.8;100.0
21121;DHT22;12519;43.318;21.898;2023-12-20T07:33:58;5.7;100.0
21121;DHT22;12519;43.318;21.898;2023-12-20T07:38:34;5.7;100.0
21121;DHT22;12519;43.318;21.898;2023-12-20T07:43:11;5.7;100.0
21121;DHT22;12519;43.318;21.898;2023-12-20T07:47:47;6.0;100.0
21121;DHT22;12519;43.318;21.898;2023-12-20T07:52:23;6.0;100.0
21121;DHT22;12519;43.318;21.898;2023-12-20T07:56:59;6.2;100.0
21121;DHT22;12519;43.318;21.898;2023-12-20T08:01:36;6.2;100.0
21121;DHT22;12519;43.318;21.898;2023-12-20T08:06:12;6.9;98.0
21121;DHT22;12519;43.318;21.898;2023-12-20T08:10:48;6.9;98.0
21121;DHT22;12519;43.318;21.898;2023-12-20T08:15:25;7.6;97.0
21121;DHT22;12519;43.318;21.898;2023-12-20T08:20:04;7.6;97.0
21121;DHT22;12519;43.318;21.898;2023-12-20T08:24:43;7.0;98.0
21121;DHT22;12519;43.318;21.898;2023-12-20T08:29:20;7.0;98.0
21121;DHT22;12519;43.318;21.898;2023-12-20T08:33:56;6.5;99.0
21121;DHT22;12519;43.318;21.898;2023-12-20T08:38:33;6.5;99.0
21121;DHT22;12519;43.318;21.898;2023-12-20T08:43:09;6.5;99.0
21121;DHT22;12519;43.318;21.898;2023-12-20T08:47:46;6.8;99.0
21121;DHT22;12519;43.318;21.898;2023-12-20T08:52:22;6.8;99.0
21121;DHT22;12519;43.318;21.898;2023-12-20T08:56:59;7.1;99.0
21121;DHT22;12519;43.318;21.898;2023-12-20T09:01:35;7.1;99.0
21121;DHT22;12519;43.318;21.898;2023-12-20T09:06:11;6.9;99.0
21121;DHT22;12519;43.318;21.898;2023-12-20T09:10:47;6.9;99.0
21121;DHT22;12519;43.318;21.898;2023-12-20T09:15:26;6.7;100.0
21121;DHT22;12519;43.318;21.898;2023-12-20T09:20:04;6.7;100.0
21121;DHT22;12519;43.318;21.898;2023-12-20T09:24:43;6.4;100.0
21121;DHT22;12519;43.318;21.898;2023-12-20T09:29:19;6.4;100.0
21121;DHT22;12519;43.318;21.898;2023-12-20T09:33:55;6.2;100.0
21121;DHT22;12519;43.318;21.898;2023-12-20T09:38:32;6.2;100.0
21121;DHT22;12519;43.318;21.898;2023-12-20T09:43:14;6.2;100.0
21121;DHT22;12519;43.318;21.898;2023-12-20T09:47:58;7.0;100.0
21121;DHT22;12519;43.318;21.898;2023-12-20T09:52:36;7.0;100.0
21121;DHT22;12519;43.318;21.898;2023-12-20T09:57:18;7.9;100.0
21121;DHT22;12519;43.318;21.898;2023-12-20T10:01:55;7.9;100.0
21121;DHT22;12519;43.318;21.898;2023-12-20T10:06:37;9.0;99.0
21121;DHT22;12519;43.318;21.898;2023-12-20T10:11:15;9.0;99.0
21121;DHT22;12519;43.318;21.898;2023-12-20T10:15:52;10.1;98.0
21121;DHT22;12519;43.318;21.898;2023-12-20T10:20:28;10.1;98.0
21121;DHT22;12519;43.318;21.898;2023-12-20T10:25:08;10.9;93.0
21121;DHT22;12519;43.318;21.898;2023-12-20T10:29:44;10.9;93.0
21121;DHT22;12519;43.318;21.898;2023-12-20T10:34:21;11.7;89.0
21121;DHT22;12519;43.318;21.898;2023-12-20T10:38:59;11.7;89.0
21121;DHT22;12519;43.318;21.898;2023-12-20T10:43:38;11.7;89.0
21121;DHT22;12519;43.318;21.898;2023-12-20T10:48:19;11.1;90.0
21121;DHT22;12519;43.318;21.898;2023-12-20T10:52:59;11.1;90.0
21121;DHT22;12519;43.318;21.898;2023-12-20T10:57:36;10.6;92.0
21121;DHT22;12519;43.318;21.898;2023-12-20T11:02:13;10.6;92.0
21121;DHT22;12519;43.318;21.898;2023-12-20T11:07:01;10.5;90.0
21121;DHT22;12519;43.318;21.898;2023-12-20T11:12:15;10.5;90.0
21121;DHT22;12519;43.318;21.898;2023-12-20T11:17:17;10.4;87.0
21121;DHT22;12519;43.318;21.898;2023-12-20T11:21:53;10.4;87.0
21121;DHT22;12519;43.318;21.898;2023-12-20T11:26:29;9.4;90.0
21121;DHT22;12519;43.318;21.898;2023-12-20T11:31:06;9.4;90.0
21121;DHT22;12519;43.318;21.898;2023-12-20T11:35:42;8.5;92.0
21121;DHT22;12519;43.318;21.898;2023-12-20T11:40:23;8.5;92.0
21121;DHT22;12519;43.318;21.898;2023-12-20T11:45:01;8.6;92.0
21121;DHT22;12519;43.318;21.898;2023-12-20T11:49:39;8.6;92.0
21121;DHT22;12519;43.318;21.898;2023-12-20T11:54:16;8.8;92.0
21121;DHT22;12519;43.318;21.898;2023-12-20T11:58:53;8.8;92.0
21121;DHT22;12519;43.318;21.898;2023-12-20T12:03:31;8.8;92.0
21121;DHT22;12519;43.318;21.898;2023-12-20T12:08:07;9.0;92.0
21121;DHT22;12519;43.318;21.898;2023-12-20T12:12:44;9.0;92.0
21121;DHT22;12519;43.318;21.898;2023-12-20T12:17:21;9.1;92.0
21121;DHT22;12519;43.318;21.898;2023-12-20T12:22:08;9.1;92.0
21121;DHT22;12519;43.318;21.898;2023-12-20T12:26:51;9.0;92.0
21121;DHT22;12519;43.318;21.898;2023-12-20T12:31:27;9.0;92.0
21121;DHT22;12519;43.318;21.898;2023-12-20T12:36:05;9.0;92.0
21121;DHT22;12519;43.318;21.898;2023-12-20T12:40:43;9.0;92.0
21121;DHT22;12519;43.318;21.898;2023-12-20T12:45:20;9.2;93.0
21121;DHT22;12519;43.318;21.898;2023-12-20T12:49:56;9.2;93.0
21121;DHT22;12519;43.318;21.898;2023-12-20T12:54:32;9.4;93.0
21121;DHT22;12519;43.318;21.898;2023-12-20T12:59:09;9.4;93.0
21121;DHT22;12519;43.318;21.898;2023-12-20T13:03:45;9.4;93.0
21121;DHT22;12519;43.318;21.898;2023-12-20T13:08:21;9.9;92.0
21121;DHT22;12519;43.318;21.898;2023-12-20T13:12:58;9.9;92.0
21121;DHT22;12519;43.318;21.898;2023-12-20T13:17:35;10.3;91.0
21121;DHT22;12519;43.318;21.898;2023-12-20T13:22:11;10.3;91.0
21121;DHT22;12519;43.318;21.898;2023-12-20T13:26:48;10.6;91.0
21121;DHT22;12519;43.318;21.898;2023-12-20T13:31:24;10.6;91.0
21121;DHT22;12519;43.318;21.898;2023-12-20T13:36:01;10.9;91.0
21121;DHT22;12519;43.318;21.898;2023-12-20T13:40:38;10.9;91.0
21121;DHT22;12519;43.318;21.898;2023-12-20T13:45:14;11.0;90.0
21121;DHT22;12519;43.318;21.898;2023-12-20T13:49:52;11.0;90.0
21121;DHT22;12519;43.318;21.898;2023-12-20T13:54:28;11.0;89.0
21121;DHT22;12519;43.318;21.898;2023-12-20T13:59:04;11.0;89.0
21121;DHT22;12519;43.318;21.898;2023-12-20T14:03:41;11.0;89.0
21121;DHT22;12519;43.318;21.898;2023-12-20T14:08:17;10.8;89.0
21121;DHT22;12519;43.318;21.898;2023-12-20T14:12:53;10.8;89.0
21121;DHT22;12519;43.318;21.898;2023-12-20T14:17:30;10.7;89.0
21121;DHT22;12519;43.318;21.898;2023-12-20T14:22:07;10.7;89.0
21121;DHT22;12519;43.318;21.898;2023-12-20T14:26:43;10.6;89.0
21121;DHT22;12519;43.318;21.898;2023-12-20T14:31:19;10.6;89.0
21121;DHT22;12519;43.318;21.898;2023-12-20T14:35:55;10.4;90.0
21121;DHT22;12519;43.318;21.898;2023-12-20T14:40:32;10.4;90.0
21121;DHT22;12519;43.318;21.898;2023-12-20T14:45:10;10.4;90.0
21121;DHT22;12519;43.318;21.898;2023-12-20T14:49:47;10.4;90.0
21121;DHT22;12519;43.318;21.898;2023-12-20T14:54:24;10.4;90.0
21121;DHT22;12519;43.318;21.898;2023-12-20T14:59:00;10.4;90.0
21121;DHT22;12519;43.318;21.898;2023-12-20T15:03:37;10.4;90.0
21121;DHT22;12519;43.318;21.898;2023-12-20T15:08:14;10.4;90.0
21121;DHT22;12519;43.318;21.898;2023-12-20T15:12:51;10.4;90.0
21121;DHT22;12519;43.318;21.898;2023-12-20T15:17:27;10.3;90.0
21121;DHT22;12519;43.318;21.898;2023-12-20T15:22:03;10.3;90.0
21121;DHT22;12519;43.318;21.898;2023-12-20T15:26:40;10.1;91.0
21121;DHT22;12519;43.318;21.898;2023-12-20T15:31:18;10.1;91.0
21121;DHT22;12519;43.318;21.898;2023-12-20T15:35:55;9.9;92.0
21121;DHT22;12519;43.318;21.898;2023-12-20T15:40:31;9.9;92.0
21121;DHT22;12519;43.318;21.898;2023-12-20T15:45:08;9.5;94.0
21121;DHT22;12519;43.318;21.898;2023-12-20T15:49:46;9.5;94.0
21121;DHT22;12519;43.318;21.898;2023-12-20T15:54:22;9.5;94.0
21121;DHT22;12519;43.318;21.898;2023-12-20T15:58:58;9.1;96.0
21121;DHT22;12519;43.318;21.898;2023-12-20T16:03:35;9.1;96.0
21121;DHT22;12519;43.318;21.898;2023-12-20T16:08:11;8.9;96.0
21121;DHT22;12519;43.318;21.898;2023-12-20T16:12:48;8.9;96.0
21121;DHT22;12519;43.318;21.898;2023-12-20T16:17:24;8.7;97.0
21121;DHT22;12519;43.318;21.898;2023-12-20T16:22:01;8.7;97.0
21121;DHT22;12519;43.318;21.898;2023-12-20T16:26:37;8.8;97.0
21121;DHT22;12519;43.318;21.898;2023-12-20T16:31:13;8.8;97.0
21121;DHT22;12519;43.318;21.898;2023-12-20T16:35:50;8.9;98.0
21121;DHT22;12519;43.318;21.898;2023-12-20T16:40:26;8.9;98.0
21121;DHT22;12519;43.318;21.898;2023-12-20T16:45:05;8.6;98.0
21121;DHT22;12519;43.318;21.898;2023-12-20T16:49:44;8.6;98.0
21121;DHT22;12519;43.318;21.898;2023-12-20T16:54:20;8.6;98.0
21121;DHT22;12519;43.318;21.898;2023-12-20T16:58:56;8.3;98.0
21121;DHT22;12519;43.318;21.898;2023-12-20T17:03:32;8.3;98.0
21121;DHT22;12519;43.318;21.898;2023-12-20T17:08:09;8.3;98.0
21121;DHT22;12519;43.318;21.898;2023-12-20T17:12:45;8.3;98.0
21121;DHT22;12519;43.318;21.898;2023-12-20T17:17:21;8.3;98.0
21121;DHT22;12519;43.318;21.898;2023-12-20T17:21:58;8.3;98.0
21121;DHT22;12519;43.318;21.898;2023-12-20T17:26:34;8.4;98.0
21121;DHT22;12519;43.318;21.898;2023-12-20T17:31:10;8.4;98.0
21121;DHT22;12519;43.318;21.898;2023-12-20T17:35:47;8.4;97.0
21121;DHT22;12519;43.318;21.898;2023-12-20T17:40:23;8.4;97.0
21121;DHT22;12519;43.318;21.898;2023-12-20T17:45:00;8.4;97.0
21121;DHT22;12519;43.318;21.898;2023-12-20T17:49:36;8.5;97.0
21121;DHT22;12519;43.318;21.898;2023-12-20T17:54:13;8.5;97.0
21121;DHT22;12519;43.318;21.898;2023-12-20T17:58:49;8.6;97.0
21121;DHT22;12519;43.318;21.898;2023-12-20T18:03:26;8.6;97.0
21121;DHT22;12519;43.318;21.898;2023-12-20T18:08:03;8.6;97.0
21121;DHT22;12519;43.318;21.898;2023-12-20T18:12:41;8.6;97.0
21121;DHT22;12519;43.318;21.898;2023-12-20T18:17:17;8.5;96.0
21121;DHT22;12519;43.318;21.898;2023-12-20T18:21:54;8.5;96.0
21121;DHT22;12519;43.318;21.898;2023-12-20T18:26:31;8.0;98.0
21121;DHT22;12519;43.318;21.898;2023-12-20T18:31:07;8.0;98.0
21121;DHT22;12519;43.318;21.898;2023-12-20T18:35:43;7.5;99.0
21121;DHT22;12519;43.318;21.898;2023-12-20T18:40:20;7.5;99.0
21121;DHT22;12519;43.318;21.898;2023-12-20T18:44:57;7.5;99.0
21121;DHT22;12519;43.318;21.898;2023-12-20T18:49:33;7.6;99.0
21121;DHT22;12519;43.318;21.898;2023-12-20T18:54:10;7.6;99.0
21121;DHT22;12519;43.318;21.898;2023-12-20T18:58:47;7.6;100.0
21121;DHT22;12519;43.318;21.898;2023-12-20T19:03:23;7.6;100.0
21121;DHT22;12519;43.318;21.898;2023-12-20T19:08:00;7.8;99.0
21121;DHT22;12519;43.318;21.898;2023-12-20T19:12:36;7.8;99.0
21121;DHT22;12519;43.318;21.898;2023-12-20T19:17:12;8.1;98.0
21121;DHT22;12519;43.318;21.898;2023-12-20T19:21:49;8.1;98.0
21121;DHT22;12519;43.318;21.898;2023-12-20T19:26:25;8.1;98.0
21121;DHT22;12519;43.318;21.898;2023-12-20T19:31:02;8.1;98.0
21121;DHT22;12519;43.318;21.898;2023-12-20T19:35:39;8.2;98.0
21121;DHT22;12519;43.318;21.898;2023-12-20T19:40:16;8.2;98.0
21121;DHT22;12519;43.318;21.898;2023-12-20T19:44:52;8.2;98.0
21121;DHT22;12519;43.318;21.898;2023-12-20T19:49:28;8.0;98.0
21121;DHT22;12519;43.318;21.898;2023-12-20T19:54:04;8.0;98.0
21121;DHT22;12519;43.318;21.898;2023-12-20T19:58:41;7.9;99.0
21121;DHT22;12519;43.318;21.898;2023-12-20T20:03:17;7.9;99.0
21121;DHT22;12519;43.318;21.898;2023-12-20T20:07:54;8.0;98.0
21121;DHT22;12519;43.318;21.898;2023-12-20T20:12:30;8.0;98.0
21121;DHT22;12519;43.318;21.898;2023-12-20T20:17:06;8.2;98.0
21121;DHT22;12519;43.318;21.898;2023-12-20T20:21:43;8.2;98.0
21121;DHT22;12519;43.318;21.898;2023-12-20T20:26:20;8.1;98.0
21121;DHT22;12519;43.318;21.898;2023-12-20T20:30:56;8.1;98.0
21121;DHT22;12519;43.318;21.898;2023-12-20T20:35:33;8.0;98.0
21121;DHT22;12519;43.318;21.898;2023-12-20T20:40:10;8.0;98.0
21121;DHT22;12519;43.318;21.898;2023-12-20T20:44:46;8.0;98.0
21121;DHT22;12519;43.318;21.898;2023-12-20T20:49:23;7.8;98.0
21121;DHT22;12519;43.318;21.898;2023-12-20T20:53:59;7.8;98.0
21121;DHT22;12519;43.318;21.898;2023-12-20T20:58:37;7.7;99.0
21121;DHT22;12519;43.318;21.898;2023-12-20T21:03:13;7.7;99.0
21121;DHT22;12519;43.318;21.898;2023-12-20T21:07:49;8.4;98.0
21121;DHT22;12519;43.318;21.898;2023-12-20T21:12:26;8.4;98.0
21121;DHT22;12519;43.318;21.898;2023-12-20T21:17:03;9.0;98.0
21121;DHT22;12519;43.318;21.898;2023-12-20T21:21:39;9.0;98.0
21121;DHT22;12519;43.318;21.898;2023-12-20T21:26:16;9.0;97.0
21121;DHT22;12519;43.318;21.898;2023-12-20T21:30:52;9.0;97.0
21121;DHT22;12519;43.318;21.898;2023-12-20T21:35:28;8.9;96.0
21121;DHT22;12519;43.318;21.898;2023-12-20T21:40:08;8.9;96.0
21121;DHT22;12519;43.318;21.898;2023-12-20T21:44:46;8.9;96.0
21121;DHT22;12519;43.318;21.898;2023-12-20T21:49:23;8.4;97.0
21121;DHT22;12519;43.318;21.898;2023-12-20T21:53:59;8.4;97.0
21121;DHT22;12519;43.318;21.898;2023-12-20T21:58:36;7.8;98.0
21121;DHT22;12519;43.318;21.898;2023-12-20T22:03:13;7.8;98.0
21121;DHT22;12519;43.318;21.898;2023-12-20T22:07:49;7.6;99.0
21121;DHT22;12519;43.318;21.898;2023-12-20T22:12:26;7.6;99.0
21121;DHT22;12519;43.318;21.898;2023-12-20T22:17:03;7.5;100.0
21121;DHT22;12519;43.318;21.898;2023-12-20T22:21:39;7.5;100.0
21121;DHT22;12519;43.318;21.898;2023-12-20T22:26:16;7.6;100.0
21121;DHT22;12519;43.318;21.898;2023-12-20T22:30:52;7.6;100.0
21121;DHT22;12519;43.318;21.898;2023-12-20T22:35:28;7.6;100.0
21121;DHT22;12519;43.318;21.898;2023-12-20T22:40:07;7.7;100.0
21121;DHT22;12519;43.318;21.898;2023-12-20T22:44:47;7.7;100.0
21121;DHT22;12519;43.318;21.898;2023-12-20T22:49:23;7.6;100.0
21121;DHT22;12519;43.318;21.898;2023-12-20T22:54:00;7.6;100.0
21121;DHT22;12519;43.318;21.898;2023-12-20T22:58:37;7.4;100.0
21121;DHT22;12519;43.318;21.898;2023-12-20T23:03:14;7.4;100.0
21121;DHT22;12519;43.318;21.898;2023-12-20T23:07:50;7.2;100.0
21121;DHT22;12519;43.318;21.898;2023-12-20T23:12:27;7.2;100.0
21121;DHT22;12519;43.318;21.898;2023-12-20T23:17:03;7.0;100.0
21121;DHT22;12519;43.318;21.898;2023-12-20T23:21:39;7.0;100.0
21121;DHT22;12519;43.318;21.898;2023-12-20T23:26:15;6.9;100.0
21121;DHT22;12519;43.318;21.898;2023-12-20T23:30:51;6.9;100.0
21121;DHT22;12519;43.318;21.898;2023-12-20T23:35:28;6.9;100.0
21121;DHT22;12519;43.318;21.898;2023-12-20T23:40:06;6.8;100.0
21121;DHT22;12519;43.318;21.898;2023-12-20T23:44:44;6.8;100.0
21121;DHT22;12519;43.318;21.898;2023-12-20T23:49:20;6.8;100.0
21121;DHT22;12519;43.318;21.898;2023-12-20T23:53:56;6.8;100.0
21121;DHT22;12519;43.318;21.898;2023-12-20T23:58:33;6.8;100.0
